Nearby METAR Reports

 

CYOW - Ottawa Intl, Ontario, Canada
Distance from station: N 33km
Updated: 18/10/2018 13:00
Few Clouds
Few Clouds
 Wind from W
Wind: W 26 km/h, Gust: 41 km/h
Temperature: 3°C
Wind Chill: -2°C
Dew Point: -9°C
Humidity: 41%
Barometer: 30.31 inHg , 1026.4 hPa
Clouds: Few Clouds
Visibility: 24 km
Cloud details: Few Clouds 1219 m
2018/10/18 17:00 CYOW 181700Z 28014G22KT 15SM FEW040 03/M09 A3031 RMK CU2 SLP270
CYGK - Kingston Arpt, Ontario, Canada
Distance from station: SW 117km
Updated: 18/10/2018 13:00
Few Clouds
Few Clouds
 Wind from WSW
Wind: WSW 22 km/h, Gust: 35 km/h
Temperature: 5°C
Wind Chill: 1°C
Dew Point: -8°C
Humidity: 39%
Barometer: 30.36 inHg , 1028.1 hPa
Clouds: Few Clouds
Visibility: 24 km
Cloud details: Few Clouds 1524 m
2018/10/18 17:00 CYGK 181700Z 24012G19KT 220V310 15SM FEW050 05/M08 A3036 RMK SC1 PRESFR SLP287
KMSS - Massena, New York, USA
Distance from station: E 62km
Updated: 18/10/2018 12:53
Partly cloudy
Partly cloudy
 Wind from W
Wind: W 20 km/h, Gust: 30 km/h
Temperature: 4°C
Wind Chill: -1°C
Dew Point: -6°C
Humidity: 48%
Barometer: 30.33 inHg , 1027.1 hPa
Clouds: Partly cloudy
Visibility: 16 km
Cloud details: Partly cloudy 1402 m
2018/10/18 16:53 KMSS 181653Z AUTO 27011G16KT 10SM SCT046 04/M06 A3033 RMK AO2 SLP275 T00391061